Terminal Aerodrome Forecast
Issued by NWS

Home | Current Version | Previous Version | Text Only | Print | Product List | Glossary On
Versions: 1 2 3 4 5 6 7 8 9 10 11 12 13 14
880
FTUS45 KABQ 171126
TAFROW
TAF
KROW 171126Z 1712/1812 20005KT P6SM FEW250
     FM171600 16008KT P6SM FEW250
     FM180200 20005KT P6SM SCT250=

USA.gov is the U.S. government's official web portal to all federal, state and local government web resources and services.